This is the latest recevied weather packets stored in our database for station/object K0APR. If no packets are shown the sender has not sent any weather packets the latest 10 day(s).
| Time | Temp. | Humidity | Pressure | Rain* | Wind** | Luminosity | Snow |
|---|---|---|---|---|---|---|---|
| 1777606269 | 5° C | 88% | 1017.5 hPa | 0 mm | - | 0 W/m² | - |
| 1777605965 | 5° C | 88% | 1017.5 hPa | 0 mm | - | 0 W/m² | - |
| 1777605661 | 5° C | 88% | 1017.9 hPa | 0 mm | - | 0 W/m² | - |
| 1777605360 | 5° C | 88% | 1017.5 hPa | 0 mm | - | 0 W/m² | - |
| 1777605057 | 5° C | 88% | 1017.9 hPa | 0 mm | - | 0 W/m² | - |
| 1777604752 | 5° C | 88% | 1017.5 hPa | 0 mm | - | 0 W/m² | - |
| 1777604449 | 5° C | 88% | 1017.5 hPa | 0 mm | - | 0 W/m² | - |
| 1777604149 | 5° C | 87% | 1017.5 hPa | 0 mm | - | 0 W/m² | - |
| 1777603846 | 5° C | 87% | 1017.5 hPa | 0 mm | - | 0 W/m² | - |
| 1777603542 | 5° C | 86% | 1017.5 hPa | 0 mm | - | 0 W/m² | - |
| 1777603238 | 5° C | 87% | 1017.2 hPa | 0 mm | - | 0 W/m² | - |
| 1777602934 | 5.56° C | 87% | 1017.2 hPa | 0 mm | - | 0 W/m² | - |
| 1777602630 | 6.11° C | 86% | 1017.5 hPa | 0 mm | - | 0 W/m² | - |
| 1777602325 | 6.67° C | 84% | 1017.2 hPa | 0 mm | - | 0 W/m² | - |
| 1777602021 | 6.67° C | 84% | 1017.5 hPa | 0 mm | - | 0 W/m² | - |
| 1777601716 | 6.67° C | 83% | 1017.2 hPa | 0 mm | - | 0 W/m² | - |
| 1777600501 | 6.11° C | 83% | 1016.8 hPa | 0 mm | - | 0 W/m² | - |
| 1777587453 | 11.67° C | 49% | 1016.5 hPa | 0 mm | - | 364 W/m² | - |
| 1777584415 | 10° C | 54% | 1017.2 hPa | 0 mm | - | 108 W/m² | - |
| 1777583810 | 9.44° C | 53% | 1017.2 hPa | 0 mm | - | 113 W/m² | - |
| 1777582287 | 10° C | 52% | 1017.5 hPa | 0 mm | - | 271 W/m² | - |
| 1777581985 | 10° C | 52% | 1017.5 hPa | 0 mm | - | 121 W/m² | - |
| 1777580779 | 10.56° C | 47% | 1017.5 hPa | 0 mm | - | 197 W/m² | - |
| 1777580171 | 10.56° C | 45% | 1017.9 hPa | 0 mm | - | 321 W/m² | - |
| 1777579869 | 10.56° C | 45% | 1017.9 hPa | 0 mm | - | 326 W/m² | - |
* Rain latest hour (hover to see other rain measurements)
** Current wind speed in m/s (hover to see current wind gust speed)